sensor_id;sensor_type;location;lat;lon;timestamp;P1;durP1;ratioP1;P2;durP2;ratioP2
21754;SDS011;11039;50.028;19.938;2023-08-17T00:00:52;13.10;;;10.10;;
21754;SDS011;11039;50.028;19.938;2023-08-17T00:03:18;13.73;;;10.80;;
21754;SDS011;11039;50.028;19.938;2023-08-17T00:05:44;14.68;;;10.98;;
21754;SDS011;11039;50.028;19.938;2023-08-17T00:08:10;12.20;;;10.32;;
21754;SDS011;11039;50.028;19.938;2023-08-17T00:10:36;14.65;;;11.10;;
21754;SDS011;11039;50.028;19.938;2023-08-17T00:13:03;11.98;;;10.52;;
21754;SDS011;11039;50.028;19.938;2023-08-17T00:15:29;14.07;;;10.77;;
21754;SDS011;11039;50.028;19.938;2023-08-17T00:17:56;15.02;;;11.43;;
21754;SDS011;11039;50.028;19.938;2023-08-17T00:20:22;11.43;;;10.25;;
21754;SDS011;11039;50.028;19.938;2023-08-17T00:25:07;12.23;;;10.82;;
21754;SDS011;11039;50.028;19.938;2023-08-17T00:27:33;12.88;;;10.82;;
21754;SDS011;11039;50.028;19.938;2023-08-17T00:29:59;16.92;;;11.43;;
21754;SDS011;11039;50.028;19.938;2023-08-17T00:32:25;13.80;;;10.52;;
21754;SDS011;11039;50.028;19.938;2023-08-17T00:34:51;14.38;;;10.25;;
21754;SDS011;11039;50.028;19.938;2023-08-17T00:37:17;13.73;;;10.73;;
21754;SDS011;11039;50.028;19.938;2023-08-17T00:39:43;13.45;;;9.93;;
21754;SDS011;11039;50.028;19.938;2023-08-17T00:42:09;11.98;;;10.75;;
21754;SDS011;11039;50.028;19.938;2023-08-17T00:44:35;12.05;;;10.15;;
21754;SDS011;11039;50.028;19.938;2023-08-17T00:51:37;12.88;;;10.63;;
21754;SDS011;11039;50.028;19.938;2023-08-17T00:54:04;12.80;;;11.10;;
21754;SDS011;11039;50.028;19.938;2023-08-17T00:56:30;13.45;;;10.32;;
21754;SDS011;11039;50.028;19.938;2023-08-17T00:58:56;12.80;;;10.30;;
21754;SDS011;11039;50.028;19.938;2023-08-17T01:01:23;15.10;;;10.65;;
21754;SDS011;11039;50.028;19.938;2023-08-17T01:06:07;15.13;;;10.98;;
21754;SDS011;11039;50.028;19.938;2023-08-17T01:08:33;17.98;;;11.25;;
21754;SDS011;11039;50.028;19.938;2023-08-17T01:11:02;13.25;;;11.15;;
21754;SDS011;11039;50.028;19.938;2023-08-17T01:13:35;17.17;;;10.50;;
21754;SDS011;11039;50.028;19.938;2023-08-17T01:16:05;12.35;;;11.15;;
21754;SDS011;11039;50.028;19.938;2023-08-17T01:18:33;13.77;;;11.30;;
21754;SDS011;11039;50.028;19.938;2023-08-17T01:21:01;11.43;;;10.13;;
21754;SDS011;11039;50.028;19.938;2023-08-17T01:23:28;12.88;;;10.65;;
21754;SDS011;11039;50.028;19.938;2023-08-17T01:30:35;13.93;;;10.95;;
21754;SDS011;11039;50.028;19.938;2023-08-17T01:37:50;13.75;;;11.15;;
21754;SDS011;11039;50.028;19.938;2023-08-17T01:40:16;13.38;;;10.90;;
21754;SDS011;11039;50.028;19.938;2023-08-17T01:42:43;18.15;;;11.25;;
21754;SDS011;11039;50.028;19.938;2023-08-17T01:45:09;12.73;;;10.85;;
21754;SDS011;11039;50.028;19.938;2023-08-17T01:47:36;11.85;;;10.65;;
21754;SDS011;11039;50.028;19.938;2023-08-17T01:50:02;14.68;;;10.98;;
21754;SDS011;11039;50.028;19.938;2023-08-17T01:54:47;13.05;;;10.32;;
21754;SDS011;11039;50.028;19.938;2023-08-17T01:57:13;13.20;;;10.90;;
21754;SDS011;11039;50.028;19.938;2023-08-17T01:59:39;13.25;;;10.75;;
21754;SDS011;11039;50.028;19.938;2023-08-17T02:02:05;12.80;;;10.95;;
21754;SDS011;11039;50.028;19.938;2023-08-17T02:04:33;11.57;;;10.32;;
21754;SDS011;11039;50.028;19.938;2023-08-17T02:06:59;15.27;;;10.88;;
21754;SDS011;11039;50.028;19.938;2023-08-17T02:09:25;12.65;;;10.60;;
21754;SDS011;11039;50.028;19.938;2023-08-17T02:11:51;14.20;;;10.85;;
21754;SDS011;11039;50.028;19.938;2023-08-17T02:14:17;11.52;;;10.32;;
21754;SDS011;11039;50.028;19.938;2023-08-17T02:16:43;14.63;;;10.50;;
21754;SDS011;11039;50.028;19.938;2023-08-17T02:19:09;12.30;;;10.50;;
21754;SDS011;11039;50.028;19.938;2023-08-17T02:21:35;12.63;;;10.65;;
21754;SDS011;11039;50.028;19.938;2023-08-17T02:24:01;12.60;;;11.02;;
21754;SDS011;11039;50.028;19.938;2023-08-17T02:26:27;14.63;;;10.90;;
21754;SDS011;11039;50.028;19.938;2023-08-17T02:28:53;13.20;;;11.15;;
21754;SDS011;11039;50.028;19.938;2023-08-17T02:33:38;13.02;;;10.90;;
21754;SDS011;11039;50.028;19.938;2023-08-17T02:38:22;17.23;;;10.82;;
21754;SDS011;11039;50.028;19.938;2023-08-17T02:40:48;12.85;;;11.05;;
21754;SDS011;11039;50.028;19.938;2023-08-17T02:43:15;12.40;;;10.00;;
21754;SDS011;11039;50.028;19.938;2023-08-17T02:45:41;11.85;;;10.23;;
21754;SDS011;11039;50.028;19.938;2023-08-17T02:48:07;12.45;;;10.50;;
21754;SDS011;11039;50.028;19.938;2023-08-17T02:50:33;13.77;;;9.80;;
21754;SDS011;11039;50.028;19.938;2023-08-17T02:52:59;11.15;;;9.45;;
21754;SDS011;11039;50.028;19.938;2023-08-17T02:55:27;12.25;;;10.02;;
21754;SDS011;11039;50.028;19.938;2023-08-17T02:57:53;11.75;;;10.55;;
21754;SDS011;11039;50.028;19.938;2023-08-17T03:00:19;12.95;;;10.75;;
21754;SDS011;11039;50.028;19.938;2023-08-17T03:02:45;15.60;;;10.93;;
21754;SDS011;11039;50.028;19.938;2023-08-17T03:05:11;14.95;;;12.20;;
21754;SDS011;11039;50.028;19.938;2023-08-17T03:07:37;12.68;;;11.02;;
21754;SDS011;11039;50.028;19.938;2023-08-17T03:10:03;12.95;;;11.07;;
21754;SDS011;11039;50.028;19.938;2023-08-17T03:12:29;12.57;;;11.05;;
21754;SDS011;11039;50.028;19.938;2023-08-17T03:14:55;16.95;;;11.68;;
21754;SDS011;11039;50.028;19.938;2023-08-17T03:17:21;12.98;;;11.60;;
21754;SDS011;11039;50.028;19.938;2023-08-17T03:19:47;14.43;;;11.68;;
21754;SDS011;11039;50.028;19.938;2023-08-17T03:22:13;15.45;;;12.63;;
21754;SDS011;11039;50.028;19.938;2023-08-17T03:24:39;14.00;;;12.18;;
21754;SDS011;11039;50.028;19.938;2023-08-17T03:27:05;17.40;;;12.10;;
21754;SDS011;11039;50.028;19.938;2023-08-17T03:29:31;15.55;;;11.75;;
21754;SDS011;11039;50.028;19.938;2023-08-17T03:31:57;14.20;;;11.20;;
21754;SDS011;11039;50.028;19.938;2023-08-17T03:34:23;14.45;;;11.57;;
21754;SDS011;11039;50.028;19.938;2023-08-17T03:36:49;12.73;;;11.13;;
21754;SDS011;11039;50.028;19.938;2023-08-17T03:39:15;15.18;;;11.70;;
21754;SDS011;11039;50.028;19.938;2023-08-17T03:41:41;13.75;;;12.15;;
21754;SDS011;11039;50.028;19.938;2023-08-17T03:44:07;14.82;;;11.48;;
21754;SDS011;11039;50.028;19.938;2023-08-17T03:46:34;15.38;;;11.55;;
21754;SDS011;11039;50.028;19.938;2023-08-17T03:49:00;14.95;;;12.00;;
21754;SDS011;11039;50.028;19.938;2023-08-17T03:51:26;14.13;;;11.20;;
21754;SDS011;11039;50.028;19.938;2023-08-17T03:53:52;13.48;;;11.15;;
21754;SDS011;11039;50.028;19.938;2023-08-17T03:56:18;14.13;;;11.57;;
21754;SDS011;11039;50.028;19.938;2023-08-17T03:58:44;15.15;;;11.30;;
21754;SDS011;11039;50.028;19.938;2023-08-17T04:03:30;15.25;;;11.20;;
21754;SDS011;11039;50.028;19.938;2023-08-17T04:05:56;12.55;;;10.50;;
21754;SDS011;11039;50.028;19.938;2023-08-17T04:08:22;12.70;;;10.18;;
21754;SDS011;11039;50.028;19.938;2023-08-17T04:10:48;12.38;;;10.02;;
21754;SDS011;11039;50.028;19.938;2023-08-17T04:13:14;12.00;;;10.50;;
21754;SDS011;11039;50.028;19.938;2023-08-17T04:15:40;13.52;;;10.95;;
21754;SDS011;11039;50.028;19.938;2023-08-17T04:18:07;14.00;;;10.40;;
21754;SDS011;11039;50.028;19.938;2023-08-17T04:20:33;11.57;;;10.48;;
21754;SDS011;11039;50.028;19.938;2023-08-17T04:22:59;10.88;;;9.77;;
21754;SDS011;11039;50.028;19.938;2023-08-17T04:25:25;12.07;;;10.35;;
21754;SDS011;11039;50.028;19.938;2023-08-17T04:27:51;12.60;;;10.02;;
21754;SDS011;11039;50.028;19.938;2023-08-17T04:30:17;13.95;;;10.90;;
21754;SDS011;11039;50.028;19.938;2023-08-17T04:32:43;11.73;;;10.52;;
21754;SDS011;11039;50.028;19.938;2023-08-17T04:35:09;12.27;;;10.80;;
21754;SDS011;11039;50.028;19.938;2023-08-17T04:39:55;12.68;;;11.23;;
21754;SDS011;11039;50.028;19.938;2023-08-17T04:42:21;12.57;;;9.82;;
21754;SDS011;11039;50.028;19.938;2023-08-17T04:44:47;14.10;;;10.90;;
21754;SDS011;11039;50.028;19.938;2023-08-17T04:47:13;12.52;;;10.77;;
21754;SDS011;11039;50.028;19.938;2023-08-17T04:49:39;13.57;;;10.77;;
21754;SDS011;11039;50.028;19.938;2023-08-17T04:52:05;13.38;;;10.80;;
21754;SDS011;11039;50.028;19.938;2023-08-17T04:54:31;12.77;;;10.65;;
21754;SDS011;11039;50.028;19.938;2023-08-17T04:56:57;11.80;;;10.52;;
21754;SDS011;11039;50.028;19.938;2023-08-17T04:59:23;12.30;;;11.00;;
21754;SDS011;11039;50.028;19.938;2023-08-17T05:01:49;13.40;;;11.00;;
21754;SDS011;11039;50.028;19.938;2023-08-17T05:04:16;12.05;;;10.45;;
21754;SDS011;11039;50.028;19.938;2023-08-17T05:06:42;11.95;;;10.52;;
21754;SDS011;11039;50.028;19.938;2023-08-17T05:09:08;12.60;;;10.35;;
21754;SDS011;11039;50.028;19.938;2023-08-17T05:11:34;13.35;;;10.55;;
21754;SDS011;11039;50.028;19.938;2023-08-17T05:14:00;12.77;;;10.93;;
21754;SDS011;11039;50.028;19.938;2023-08-17T05:16:26;11.95;;;10.57;;
21754;SDS011;11039;50.028;19.938;2023-08-17T05:18:52;16.50;;;11.43;;
21754;SDS011;11039;50.028;19.938;2023-08-17T05:21:18;12.30;;;10.68;;
21754;SDS011;11039;50.028;19.938;2023-08-17T05:23:44;14.73;;;11.00;;
21754;SDS011;11039;50.028;19.938;2023-08-17T05:26:10;15.35;;;11.13;;
21754;SDS011;11039;50.028;19.938;2023-08-17T05:28:36;13.93;;;10.88;;
21754;SDS011;11039;50.028;19.938;2023-08-17T05:31:06;13.35;;;11.95;;
21754;SDS011;11039;50.028;19.938;2023-08-17T05:33:32;13.68;;;10.75;;
21754;SDS011;11039;50.028;19.938;2023-08-17T05:35:58;11.02;;;9.77;;
21754;SDS011;11039;50.028;19.938;2023-08-17T05:38:24;13.18;;;11.38;;
21754;SDS011;11039;50.028;19.938;2023-08-17T05:40:54;12.50;;;10.60;;
21754;SDS011;11039;50.028;19.938;2023-08-17T05:43:21;14.35;;;11.48;;
21754;SDS011;11039;50.028;19.938;2023-08-17T05:45:47;12.88;;;11.57;;
21754;SDS011;11039;50.028;19.938;2023-08-17T05:48:13;13.48;;;11.68;;
21754;SDS011;11039;50.028;19.938;2023-08-17T05:50:42;15.55;;;11.90;;
21754;SDS011;11039;50.028;19.938;2023-08-17T05:53:08;13.15;;;11.20;;
21754;SDS011;11039;50.028;19.938;2023-08-17T05:57:53;16.23;;;12.20;;
21754;SDS011;11039;50.028;19.938;2023-08-17T06:00:19;18.08;;;12.45;;
21754;SDS011;11039;50.028;19.938;2023-08-17T06:02:45;14.50;;;12.20;;
21754;SDS011;11039;50.028;19.938;2023-08-17T06:05:15;19.40;;;12.35;;
21754;SDS011;11039;50.028;19.938;2023-08-17T06:07:41;16.67;;;13.05;;
21754;SDS011;11039;50.028;19.938;2023-08-17T06:10:08;17.15;;;13.45;;
21754;SDS011;11039;50.028;19.938;2023-08-17T06:12:34;15.10;;;12.85;;
21754;SDS011;11039;50.028;19.938;2023-08-17T06:15:01;17.95;;;12.85;;
21754;SDS011;11039;50.028;19.938;2023-08-17T06:17:28;17.42;;;12.73;;
21754;SDS011;11039;50.028;19.938;2023-08-17T06:19:54;18.50;;;13.43;;
21754;SDS011;11039;50.028;19.938;2023-08-17T06:22:20;16.55;;;12.65;;
21754;SDS011;11039;50.028;19.938;2023-08-17T06:24:46;16.58;;;13.18;;
21754;SDS011;11039;50.028;19.938;2023-08-17T06:27:13;16.40;;;13.38;;
21754;SDS011;11039;50.028;19.938;2023-08-17T06:29:40;16.92;;;13.52;;
21754;SDS011;11039;50.028;19.938;2023-08-17T06:32:07;22.27;;;13.40;;
21754;SDS011;11039;50.028;19.938;2023-08-17T06:34:33;23.08;;;13.60;;
21754;SDS011;11039;50.028;19.938;2023-08-17T06:37:01;15.75;;;12.70;;
21754;SDS011;11039;50.028;19.938;2023-08-17T06:39:27;16.30;;;12.77;;
21754;SDS011;11039;50.028;19.938;2023-08-17T06:41:53;17.33;;;12.68;;
21754;SDS011;11039;50.028;19.938;2023-08-17T06:44:19;15.77;;;13.25;;
21754;SDS011;11039;50.028;19.938;2023-08-17T06:46:46;15.25;;;12.82;;
21754;SDS011;11039;50.028;19.938;2023-08-17T06:49:12;14.90;;;12.55;;
21754;SDS011;11039;50.028;19.938;2023-08-17T06:51:39;11.68;;;10.57;;
21754;SDS011;11039;50.028;19.938;2023-08-17T06:54:07;12.52;;;11.23;;
21754;SDS011;11039;50.028;19.938;2023-08-17T06:58:53;12.93;;;9.93;;
21754;SDS011;11039;50.028;19.938;2023-08-17T07:01:19;10.10;;;9.00;;
21754;SDS011;11039;50.028;19.938;2023-08-17T07:03:45;11.65;;;10.43;;
21754;SDS011;11039;50.028;19.938;2023-08-17T07:06:11;12.13;;;9.93;;
21754;SDS011;11039;50.028;19.938;2023-08-17T07:10:55;12.73;;;10.40;;
21754;SDS011;11039;50.028;19.938;2023-08-17T07:13:21;11.07;;;9.57;;
21754;SDS011;11039;50.028;19.938;2023-08-17T07:15:47;15.90;;;10.55;;
21754;SDS011;11039;50.028;19.938;2023-08-17T07:18:13;13.88;;;10.15;;
21754;SDS011;11039;50.028;19.938;2023-08-17T07:20:39;12.15;;;10.05;;
21754;SDS011;11039;50.028;19.938;2023-08-17T07:23:05;12.05;;;10.57;;
21754;SDS011;11039;50.028;19.938;2023-08-17T07:25:31;12.90;;;10.52;;
21754;SDS011;11039;50.028;19.938;2023-08-17T07:27:58;14.00;;;11.20;;
21754;SDS011;11039;50.028;19.938;2023-08-17T07:30:24;12.05;;;9.90;;
21754;SDS011;11039;50.028;19.938;2023-08-17T07:32:50;14.23;;;10.45;;
21754;SDS011;11039;50.028;19.938;2023-08-17T07:35:16;15.77;;;11.27;;
21754;SDS011;11039;50.028;19.938;2023-08-17T07:37:42;11.70;;;10.50;;
21754;SDS011;11039;50.028;19.938;2023-08-17T07:40:08;14.48;;;10.27;;
21754;SDS011;11039;50.028;19.938;2023-08-17T07:42:35;11.23;;;10.00;;
21754;SDS011;11039;50.028;19.938;2023-08-17T07:45:02;15.35;;;10.45;;
21754;SDS011;11039;50.028;19.938;2023-08-17T07:47:33;14.63;;;10.52;;
21754;SDS011;11039;50.028;19.938;2023-08-17T07:50:01;13.05;;;9.65;;
21754;SDS011;11039;50.028;19.938;2023-08-17T07:52:27;10.52;;;9.43;;
21754;SDS011;11039;50.028;19.938;2023-08-17T07:54:53;11.23;;;9.50;;
21754;SDS011;11039;50.028;19.938;2023-08-17T07:57:19;11.30;;;9.63;;
21754;SDS011;11039;50.028;19.938;2023-08-17T07:59:45;12.93;;;9.40;;
21754;SDS011;11039;50.028;19.938;2023-08-17T08:02:11;11.27;;;9.45;;
21754;SDS011;11039;50.028;19.938;2023-08-17T08:04:37;10.55;;;9.20;;
21754;SDS011;11039;50.028;19.938;2023-08-17T08:07:03;12.20;;;9.88;;
21754;SDS011;11039;50.028;19.938;2023-08-17T08:09:29;10.40;;;9.27;;
21754;SDS011;11039;50.028;19.938;2023-08-17T08:11:55;11.32;;;10.23;;
21754;SDS011;11039;50.028;19.938;2023-08-17T08:14:21;11.38;;;9.80;;
21754;SDS011;11039;50.028;19.938;2023-08-17T08:16:48;12.30;;;10.18;;
21754;SDS011;11039;50.028;19.938;2023-08-17T08:19:14;11.85;;;9.20;;
21754;SDS011;11039;50.028;19.938;2023-08-17T08:21:40;11.50;;;9.80;;
21754;SDS011;11039;50.028;19.938;2023-08-17T08:26:24;12.35;;;9.27;;
21754;SDS011;11039;50.028;19.938;2023-08-17T08:28:50;10.52;;;9.15;;
21754;SDS011;11039;50.028;19.938;2023-08-17T08:31:16;10.30;;;9.18;;
21754;SDS011;11039;50.028;19.938;2023-08-17T08:33:42;10.18;;;9.18;;
21754;SDS011;11039;50.028;19.938;2023-08-17T08:36:09;10.35;;;8.68;;
21754;SDS011;11039;50.028;19.938;2023-08-17T08:38:35;10.15;;;9.18;;
21754;SDS011;11039;50.028;19.938;2023-08-17T08:41:01;11.82;;;9.57;;
21754;SDS011;11039;50.028;19.938;2023-08-17T08:43:27;9.10;;;8.20;;
21754;SDS011;11039;50.028;19.938;2023-08-17T08:45:54;10.20;;;8.70;;
21754;SDS011;11039;50.028;19.938;2023-08-17T08:48:21;10.52;;;9.15;;
21754;SDS011;11039;50.028;19.938;2023-08-17T08:50:48;9.82;;;8.65;;
21754;SDS011;11039;50.028;19.938;2023-08-17T08:53:17;9.70;;;8.68;;
21754;SDS011;11039;50.028;19.938;2023-08-17T08:55:55;10.45;;;8.93;;
21754;SDS011;11039;50.028;19.938;2023-08-17T08:58:23;9.77;;;8.77;;
21754;SDS011;11039;50.028;19.938;2023-08-17T09:00:50;12.57;;;8.82;;
21754;SDS011;11039;50.028;19.938;2023-08-17T09:03:18;9.48;;;8.48;;
21754;SDS011;11039;50.028;19.938;2023-08-17T09:05:48;10.40;;;9.00;;
21754;SDS011;11039;50.028;19.938;2023-08-17T09:08:15;9.90;;;8.77;;
21754;SDS011;11039;50.028;19.938;2023-08-17T09:10:42;11.45;;;8.45;;
21754;SDS011;11039;50.028;19.938;2023-08-17T09:13:08;10.50;;;8.60;;
21754;SDS011;11039;50.028;19.938;2023-08-17T09:15:34;9.35;;;8.32;;
21754;SDS011;11039;50.028;19.938;2023-08-17T09:18:00;9.70;;;8.20;;
21754;SDS011;11039;50.028;19.938;2023-08-17T09:23:03;10.55;;;8.68;;
21754;SDS011;11039;50.028;19.938;2023-08-17T09:25:30;10.38;;;8.10;;
21754;SDS011;11039;50.028;19.938;2023-08-17T09:27:59;8.90;;;8.10;;
21754;SDS011;11039;50.028;19.938;2023-08-17T09:30:25;14.55;;;8.35;;
21754;SDS011;11039;50.028;19.938;2023-08-17T09:32:51;8.57;;;7.78;;
21754;SDS011;11039;50.028;19.938;2023-08-17T09:35:17;9.75;;;8.27;;
21754;SDS011;11039;50.028;19.938;2023-08-17T09:37:43;10.88;;;8.45;;
21754;SDS011;11039;50.028;19.938;2023-08-17T09:40:09;9.27;;;8.05;;
21754;SDS011;11039;50.028;19.938;2023-08-17T09:42:35;8.82;;;7.93;;
21754;SDS011;11039;50.028;19.938;2023-08-17T09:47:20;10.20;;;8.25;;
21754;SDS011;11039;50.028;19.938;2023-08-17T09:49:54;10.00;;;7.93;;
21754;SDS011;11039;50.028;19.938;2023-08-17T09:52:23;8.65;;;7.63;;
21754;SDS011;11039;50.028;19.938;2023-08-17T09:54:49;8.77;;;7.88;;
21754;SDS011;11039;50.028;19.938;2023-08-17T09:57:15;8.52;;;7.65;;
21754;SDS011;11039;50.028;19.938;2023-08-17T09:59:41;9.65;;;8.40;;
21754;SDS011;11039;50.028;19.938;2023-08-17T10:02:11;8.70;;;7.80;;
21754;SDS011;11039;50.028;19.938;2023-08-17T10:04:40;8.27;;;7.47;;
21754;SDS011;11039;50.028;19.938;2023-08-17T10:07:06;9.52;;;7.15;;
21754;SDS011;11039;50.028;19.938;2023-08-17T10:09:36;8.63;;;7.72;;
21754;SDS011;11039;50.028;19.938;2023-08-17T10:12:06;9.40;;;7.50;;
21754;SDS011;11039;50.028;19.938;2023-08-17T10:14:36;9.32;;;7.13;;
21754;SDS011;11039;50.028;19.938;2023-08-17T10:17:07;9.77;;;8.68;;
21754;SDS011;11039;50.028;19.938;2023-08-17T10:19:49;8.50;;;7.55;;
21754;SDS011;11039;50.028;19.938;2023-08-17T10:24:55;8.20;;;7.38;;
21754;SDS011;11039;50.028;19.938;2023-08-17T10:27:23;8.27;;;7.53;;
21754;SDS011;11039;50.028;19.938;2023-08-17T10:29:50;8.73;;;7.90;;
21754;SDS011;11039;50.028;19.938;2023-08-17T10:32:17;9.63;;;7.35;;
21754;SDS011;11039;50.028;19.938;2023-08-17T10:34:43;8.13;;;7.32;;
21754;SDS011;11039;50.028;19.938;2023-08-17T10:39:30;7.90;;;7.10;;
21754;SDS011;11039;50.028;19.938;2023-08-17T10:41:56;8.35;;;7.55;;
21754;SDS011;11039;50.028;19.938;2023-08-17T10:49:47;8.52;;;7.63;;
21754;SDS011;11039;50.028;19.938;2023-08-17T10:52:13;7.18;;;6.55;;
21754;SDS011;11039;50.028;19.938;2023-08-17T10:54:41;8.20;;;7.43;;
21754;SDS011;11039;50.028;19.938;2023-08-17T11:02:39;8.10;;;7.25;;
21754;SDS011;11039;50.028;19.938;2023-08-17T11:05:06;8.23;;;7.43;;
21754;SDS011;11039;50.028;19.938;2023-08-17T11:07:42;8.10;;;7.30;;
21754;SDS011;11039;50.028;19.938;2023-08-17T11:12:46;7.50;;;6.63;;
21754;SDS011;11039;50.028;19.938;2023-08-17T11:15:13;8.13;;;7.18;;
21754;SDS011;11039;50.028;19.938;2023-08-17T11:17:39;7.85;;;7.07;;
21754;SDS011;11039;50.028;19.938;2023-08-17T11:24:43;8.25;;;7.45;;
21754;SDS011;11039;50.028;19.938;2023-08-17T11:27:09;7.78;;;6.97;;
21754;SDS011;11039;50.028;19.938;2023-08-17T11:29:36;7.70;;;7.00;;
21754;SDS011;11039;50.028;19.938;2023-08-17T11:34:20;7.72;;;7.00;;
21754;SDS011;11039;50.028;19.938;2023-08-17T11:36:46;7.88;;;7.15;;
21754;SDS011;11039;50.028;19.938;2023-08-17T11:39:12;7.72;;;6.97;;
21754;SDS011;11039;50.028;19.938;2023-08-17T11:41:39;7.15;;;6.47;;
21754;SDS011;11039;50.028;19.938;2023-08-17T11:44:05;7.40;;;6.70;;
21754;SDS011;11039;50.028;19.938;2023-08-17T11:46:32;7.88;;;6.97;;
21754;SDS011;11039;50.028;19.938;2023-08-17T11:49:00;7.13;;;6.43;;
21754;SDS011;11039;50.028;19.938;2023-08-17T11:51:30;7.75;;;6.95;;
21754;SDS011;11039;50.028;19.938;2023-08-17T11:53:59;7.78;;;7.00;;
21754;SDS011;11039;50.028;19.938;2023-08-17T11:56:28;7.13;;;6.53;;
21754;SDS011;11039;50.028;19.938;2023-08-17T11:58:54;7.30;;;6.57;;
21754;SDS011;11039;50.028;19.938;2023-08-17T12:01:20;7.47;;;6.80;;
21754;SDS011;11039;50.028;19.938;2023-08-17T12:03:47;7.25;;;6.65;;
21754;SDS011;11039;50.028;19.938;2023-08-17T12:06:15;7.78;;;6.97;;
21754;SDS011;11039;50.028;19.938;2023-08-17T12:08:45;8.00;;;7.20;;
21754;SDS011;11039;50.028;19.938;2023-08-17T12:11:11;7.18;;;6.57;;
21754;SDS011;11039;50.028;19.938;2023-08-17T12:13:37;8.57;;;7.50;;
21754;SDS011;11039;50.028;19.938;2023-08-17T12:16:03;7.93;;;6.60;;
21754;SDS011;11039;50.028;19.938;2023-08-17T12:18:33;7.70;;;6.88;;
21754;SDS011;11039;50.028;19.938;2023-08-17T12:20:59;6.88;;;6.22;;
21754;SDS011;11039;50.028;19.938;2023-08-17T12:25:44;6.65;;;6.00;;
21754;SDS011;11039;50.028;19.938;2023-08-17T12:30:30;7.90;;;6.30;;
21754;SDS011;11039;50.028;19.938;2023-08-17T12:32:57;7.50;;;6.80;;
21754;SDS011;11039;50.028;19.938;2023-08-17T12:35:24;7.32;;;6.63;;
21754;SDS011;11039;50.028;19.938;2023-08-17T12:37:53;6.88;;;6.28;;
21754;SDS011;11039;50.028;19.938;2023-08-17T12:40:20;6.90;;;6.25;;
21754;SDS011;11039;50.028;19.938;2023-08-17T12:42:46;7.43;;;5.85;;
21754;SDS011;11039;50.028;19.938;2023-08-17T12:47:30;7.10;;;6.40;;
21754;SDS011;11039;50.028;19.938;2023-08-17T12:49:56;7.43;;;6.38;;
21754;SDS011;11039;50.028;19.938;2023-08-17T12:52:23;6.85;;;6.15;;
21754;SDS011;11039;50.028;19.938;2023-08-17T12:54:49;5.93;;;5.43;;
21754;SDS011;11039;50.028;19.938;2023-08-17T12:57:15;6.22;;;5.63;;
21754;SDS011;11039;50.028;19.938;2023-08-17T12:59:41;6.82;;;6.22;;
21754;SDS011;11039;50.028;19.938;2023-08-17T13:02:07;6.85;;;6.15;;
21754;SDS011;11039;50.028;19.938;2023-08-17T13:04:33;6.70;;;6.07;;
21754;SDS011;11039;50.028;19.938;2023-08-17T13:11:35;6.45;;;5.85;;
21754;SDS011;11039;50.028;19.938;2023-08-17T13:14:01;6.35;;;5.75;;
21754;SDS011;11039;50.028;19.938;2023-08-17T13:16:27;6.68;;;6.00;;
21754;SDS011;11039;50.028;19.938;2023-08-17T13:18:53;7.00;;;5.78;;
21754;SDS011;11039;50.028;19.938;2023-08-17T13:21:19;6.45;;;5.85;;
21754;SDS011;11039;50.028;19.938;2023-08-17T13:23:45;7.28;;;5.82;;
21754;SDS011;11039;50.028;19.938;2023-08-17T13:26:11;6.55;;;5.95;;
21754;SDS011;11039;50.028;19.938;2023-08-17T13:28:37;5.65;;;5.15;;
21754;SDS011;11039;50.028;19.938;2023-08-17T13:31:04;6.20;;;5.60;;
21754;SDS011;11039;50.028;19.938;2023-08-17T13:33:30;6.22;;;5.63;;
21754;SDS011;11039;50.028;19.938;2023-08-17T13:35:56;6.13;;;5.63;;
21754;SDS011;11039;50.028;19.938;2023-08-17T13:38:22;6.32;;;5.72;;
21754;SDS011;11039;50.028;19.938;2023-08-17T13:40:48;9.32;;;6.50;;
21754;SDS011;11039;50.028;19.938;2023-08-17T13:43:14;16.95;;;6.90;;
21754;SDS011;11039;50.028;19.938;2023-08-17T13:45:40;15.80;;;7.55;;
21754;SDS011;11039;50.028;19.938;2023-08-17T13:50:26;21.50;;;8.55;;
21754;SDS011;11039;50.028;19.938;2023-08-17T13:52:52;24.73;;;8.60;;
21754;SDS011;11039;50.028;19.938;2023-08-17T13:55:18;19.45;;;9.27;;
21754;SDS011;11039;50.028;19.938;2023-08-17T13:57:44;22.80;;;10.20;;
21754;SDS011;11039;50.028;19.938;2023-08-17T14:00:11;22.13;;;9.23;;
21754;SDS011;11039;50.028;19.938;2023-08-17T14:02:37;19.23;;;9.05;;
21754;SDS011;11039;50.028;19.938;2023-08-17T14:05:04;25.45;;;9.43;;
21754;SDS011;11039;50.028;19.938;2023-08-17T14:07:30;19.92;;;9.48;;
21754;SDS011;11039;50.028;19.938;2023-08-17T14:12:16;18.95;;;9.68;;
21754;SDS011;11039;50.028;19.938;2023-08-17T14:17:02;22.40;;;10.05;;
21754;SDS011;11039;50.028;19.938;2023-08-17T14:19:28;18.33;;;8.82;;
21754;SDS011;11039;50.028;19.938;2023-08-17T14:21:54;20.73;;;10.10;;
21754;SDS011;11039;50.028;19.938;2023-08-17T14:24:20;9.27;;;6.28;;
21754;SDS011;11039;50.028;19.938;2023-08-17T14:26:46;11.48;;;5.97;;
21754;SDS011;11039;50.028;19.938;2023-08-17T14:29:12;7.18;;;4.72;;
21754;SDS011;11039;50.028;19.938;2023-08-17T14:31:38;8.80;;;4.80;;
21754;SDS011;11039;50.028;19.938;2023-08-17T14:34:04;5.85;;;4.72;;
21754;SDS011;11039;50.028;19.938;2023-08-17T14:36:30;7.88;;;4.45;;
21754;SDS011;11039;50.028;19.938;2023-08-17T14:38:56;7.82;;;4.53;;
21754;SDS011;11039;50.028;19.938;2023-08-17T14:41:22;5.57;;;3.88;;
21754;SDS011;11039;50.028;19.938;2023-08-17T14:43:56;4.78;;;3.80;;
21754;SDS011;11039;50.028;19.938;2023-08-17T14:46:22;5.93;;;4.28;;
21754;SDS011;11039;50.028;19.938;2023-08-17T14:51:08;4.30;;;3.90;;
21754;SDS011;11039;50.028;19.938;2023-08-17T14:55:53;5.85;;;3.88;;
21754;SDS011;11039;50.028;19.938;2023-08-17T14:58:20;5.35;;;4.00;;
21754;SDS011;11039;50.028;19.938;2023-08-17T15:00:46;5.10;;;3.75;;
21754;SDS011;11039;50.028;19.938;2023-08-17T15:03:12;6.18;;;3.80;;
21754;SDS011;11039;50.028;19.938;2023-08-17T15:05:38;5.45;;;3.72;;
21754;SDS011;11039;50.028;19.938;2023-08-17T15:08:04;4.35;;;3.50;;
21754;SDS011;11039;50.028;19.938;2023-08-17T15:12:49;6.88;;;3.83;;
21754;SDS011;11039;50.028;19.938;2023-08-17T15:19:55;7.95;;;3.67;;
21754;SDS011;11039;50.028;19.938;2023-08-17T15:22:21;5.53;;;3.63;;
21754;SDS011;11039;50.028;19.938;2023-08-17T15:29:28;3.58;;;3.25;;
21754;SDS011;11039;50.028;19.938;2023-08-17T15:34:13;4.05;;;3.58;;
21754;SDS011;11039;50.028;19.938;2023-08-17T15:36:39;4.00;;;3.67;;
21754;SDS011;11039;50.028;19.938;2023-08-17T15:39:05;3.97;;;3.58;;
21754;SDS011;11039;50.028;19.938;2023-08-17T15:41:32;4.25;;;3.60;;
21754;SDS011;11039;50.028;19.938;2023-08-17T15:43:58;4.90;;;4.03;;
21754;SDS011;11039;50.028;19.938;2023-08-17T15:46:24;4.25;;;3.78;;
21754;SDS011;11039;50.028;19.938;2023-08-17T15:51:09;7.47;;;4.00;;
21754;SDS011;11039;50.028;19.938;2023-08-17T15:53:35;4.00;;;3.65;;
21754;SDS011;11039;50.028;19.938;2023-08-17T15:56:04;4.55;;;3.83;;
21754;SDS011;11039;50.028;19.938;2023-08-17T15:58:30;5.00;;;4.50;;
21754;SDS011;11039;50.028;19.938;2023-08-17T16:00:56;3.97;;;3.58;;
21754;SDS011;11039;50.028;19.938;2023-08-17T16:03:22;4.40;;;3.88;;
21754;SDS011;11039;50.028;19.938;2023-08-17T16:05:48;4.30;;;3.90;;